Time;durP1;ratioP1;P1;durP2;ratioP2;P2;SDS_P1;SDS_P2;PMS_P1;PMS_P2;Temp;Humidity;BMP_temperature;BMP_pressure;BME280_temperature;BME280_humidity;BME280_pressure;Samples;Min_cycle;Max_cycle;Signal;HPM_P1;HPM_P2
2023/08/08 00:01:45;;;;;;;15.90;3.45;;;17.00;99.90;;;;;;5013158;28;48283;-81
2023/08/08 00:04:12;;;;;;;17.30;3.47;;;17.00;99.90;;;;;;5612305;23;37244;-81
2023/08/08 00:07:06;;;;;;;17.08;2.80;;;17.00;99.90;;;;;;5013924;28;40024;-82
2023/08/08 00:09:39;;;;;;;15.10;3.22;;;17.00;99.90;;;;;;5021114;28;48302;-80
2023/08/08 00:15:22;;;;;;;19.80;3.50;;;16.90;99.90;;;;;;5085638;23;20065;-81
2023/08/08 00:21:50;;;;;;;14.57;3.33;;;17.00;99.90;;;;;;5041322;28;50807;-81
2023/08/08 00:24:16;;;;;;;20.48;4.32;;;17.00;99.90;;;;;;5006392;28;37662;-81
2023/08/08 00:26:52;;;;;;;18.42;3.80;;;17.00;99.90;;;;;;5041809;28;39582;-80
2023/08/08 00:29:28;;;;;;;17.13;4.07;;;17.00;99.90;;;;;;5024908;28;38571;-81
2023/08/08 00:32:01;;;;;;;21.42;4.15;;;17.10;99.90;;;;;;5004307;28;39231;-81
2023/08/08 00:34:44;;;;;;;;;;;17.10;99.90;;;;;;5035085;28;48379;-81
2023/08/08 00:37:35;;;;;;;17.73;3.83;;;17.10;99.90;;;;;;5006867;28;36830;-80
2023/08/08 00:40:09;;;;;;;15.90;3.25;;;17.20;99.90;;;;;;5042441;28;37602;-81
2023/08/08 00:42:40;;;;;;;18.83;3.97;;;17.20;99.90;;;;;;5023502;28;47893;-79
2023/08/08 00:45:41;;;;;;;17.70;3.53;;;17.10;99.90;;;;;;5029700;28;37449;-80
2023/08/08 00:48:27;;;;;;;20.75;4.30;;;17.10;99.90;;;;;;4948624;28;38871;-81
2023/08/08 00:51:02;;;;;;;17.30;4.18;;;17.10;99.90;;;;;;4956932;28;39900;-80
2023/08/08 00:54:04;;;;;;;18.15;3.75;;;17.10;99.90;;;;;;4957467;28;48034;-80
2023/08/08 00:56:58;;;;;;;14.75;3.63;;;17.10;99.90;;;;;;4959079;28;48095;-80
2023/08/08 01:03:08;;;;;;;;;;;17.00;99.90;;;;;;5273242;23;20798;-89
2023/08/08 01:05:51;;;;;;;14.82;4.13;;;17.00;99.90;;;;;;4988197;28;39425;-89
2023/08/08 01:08:24;;;;;;;17.30;3.45;;;17.00;99.90;;;;;;4989662;28;37256;-89
2023/08/08 01:11:04;;;;;;;19.08;4.20;;;17.00;99.90;;;;;;5013405;28;36562;-90
2023/08/08 01:13:32;;;;;;;17.73;4.32;;;17.10;99.90;;;;;;5025379;28;48029;-90
2023/08/08 01:16:00;;;;;;;13.10;3.45;;;17.00;99.90;;;;;;5007117;28;37533;-90
2023/08/08 01:18:27;;;;;;;16.83;3.60;;;17.00;99.90;;;;;;5002058;28;37386;-90
2023/08/08 01:20:54;;;;;;;8.65;2.72;;;17.00;99.90;;;;;;5006774;28;38291;-89
2023/08/08 01:23:30;;;;;;;14.90;3.33;;;17.00;99.90;;;;;;5013983;28;39425;-87
2023/08/08 01:25:57;;;;;;;14.70;3.70;;;17.10;99.90;;;;;;5031480;28;38540;-89
2023/08/08 01:28:24;;;;;;;15.07;3.05;;;17.10;99.90;;;;;;5044900;28;37235;-90
2023/08/08 01:30:54;;;;;;;14.05;2.97;;;17.10;99.90;;;;;;5045681;28;37245;-89
2023/08/08 01:33:20;;;;;;;13.02;2.95;;;17.10;99.90;;;;;;5023375;28;40235;-89
2023/08/08 01:35:54;;;;;;;13.23;3.33;;;17.10;99.90;;;;;;5051099;28;39919;-89
2023/08/08 01:38:38;;;;;;;13.48;2.92;;;17.10;99.90;;;;;;5034716;28;38382;-89
2023/08/08 01:41:06;;;;;;;10.50;3.05;;;17.00;99.90;;;;;;5035980;28;37113;-88
2023/08/08 01:43:33;;;;;;;11.38;3.40;;;17.00;99.90;;;;;;5029422;28;38191;-89
2023/08/08 01:46:00;;;;;;;8.93;2.88;;;17.00;99.90;;;;;;5025626;28;39086;-89
2023/08/08 01:48:28;;;;;;;4.78;1.80;;;17.00;99.90;;;;;;5011569;28;38829;-90
2023/08/08 01:50:54;;;;;;;6.22;2.30;;;16.80;99.90;;;;;;5029770;28;37031;-90
2023/08/08 01:53:20;;;;;;;6.43;2.25;;;16.80;99.90;;;;;;5018598;28;39396;-89
2023/08/08 01:55:46;;;;;;;4.40;1.60;;;16.70;99.90;;;;;;5011837;28;38598;-89
2023/08/08 01:58:12;;;;;;;6.28;1.92;;;16.70;99.90;;;;;;5014951;28;38135;-90
2023/08/08 02:00:40;;;;;;;3.20;1.45;;;16.70;99.90;;;;;;5008923;28;37990;-90
2023/08/08 02:03:07;;;;;;;4.82;2.00;;;16.70;99.90;;;;;;5016191;28;39685;-90
2023/08/08 02:05:33;;;;;;;3.38;1.50;;;16.80;99.90;;;;;;5014033;28;40031;-90
2023/08/08 02:07:59;;;;;;;5.70;1.88;;;16.80;99.90;;;;;;5013117;28;38672;-89
2023/08/08 02:10:25;;;;;;;5.90;1.65;;;16.80;99.90;;;;;;5027066;28;37257;-90
2023/08/08 02:12:51;;;;;;;2.95;1.50;;;16.80;99.90;;;;;;5009995;28;39684;-89
2023/08/08 02:15:17;;;;;;;2.85;1.52;;;16.90;99.90;;;;;;5007478;28;38911;-89
2023/08/08 02:17:45;;;;;;;4.93;1.27;;;16.90;99.90;;;;;;5006959;28;39769;-91
2023/08/08 02:20:12;;;;;;;8.68;1.85;;;16.80;99.90;;;;;;5010388;28;38551;-90
2023/08/08 02:22:38;;;;;;;4.07;1.55;;;16.80;99.90;;;;;;5006724;28;40704;-92
2023/08/08 02:25:04;;;;;;;4.75;1.73;;;16.80;99.90;;;;;;5027091;28;38290;-91
2023/08/08 02:27:30;;;;;;;3.78;1.60;;;16.80;99.90;;;;;;5011996;28;46771;-92
2023/08/08 02:29:57;;;;;;;5.88;1.48;;;16.80;99.90;;;;;;5011390;28;39163;-91
2023/08/08 02:32:24;;;;;;;4.20;1.40;;;16.80;99.90;;;;;;5009878;28;40397;-91
2023/08/08 02:34:50;;;;;;;6.80;1.52;;;16.90;99.90;;;;;;5012249;28;39738;-91
2023/08/08 02:37:16;;;;;;;1.75;1.10;;;16.90;99.90;;;;;;5011047;28;38715;-92
2023/08/08 02:39:44;;;;;;;3.25;1.10;;;16.80;99.90;;;;;;5001805;28;38939;-92
2023/08/08 02:42:10;;;;;;;8.65;1.30;;;16.90;99.90;;;;;;5010315;28;40085;-91
2023/08/08 02:44:39;;;;;;;6.80;1.23;;;16.90;99.90;;;;;;5012707;28;38452;-91
2023/08/08 02:47:05;;;;;;;6.43;1.40;;;16.90;99.90;;;;;;5010710;28;38765;-90
2023/08/08 02:49:33;;;;;;;2.58;1.00;;;16.90;99.90;;;;;;5007463;28;37587;-91
2023/08/08 02:52:00;;;;;;;2.67;1.27;;;16.80;99.90;;;;;;5005022;28;40459;-90
2023/08/08 02:54:26;;;;;;;5.13;1.13;;;16.70;99.90;;;;;;5012497;28;39171;-91
2023/08/08 02:56:52;;;;;;;3.17;1.25;;;16.70;99.90;;;;;;5029949;28;38217;-91
2023/08/08 02:59:19;;;;;;;3.25;0.90;;;16.70;99.20;;;;;;5007768;28;38321;-91
2023/08/08 03:01:46;;;;;;;2.45;0.77;;;16.60;99.20;;;;;;5010747;28;39601;-91
2023/08/08 03:04:13;;;;;;;6.70;1.35;;;16.60;98.40;;;;;;5032745;28;38205;-90
2023/08/08 03:06:39;;;;;;;5.35;1.17;;;16.50;94.70;;;;;;5014747;28;38693;-91
2023/08/08 03:09:05;;;;;;;2.00;0.93;;;16.50;86.20;;;;;;5019014;28;36300;-90
2023/08/08 03:11:31;;;;;;;2.40;0.95;;;16.60;94.20;;;;;;5012735;28;40582;-90
2023/08/08 03:13:57;;;;;;;5.32;1.25;;;16.50;92.10;;;;;;5010506;28;37336;-91
2023/08/08 03:16:23;;;;;;;3.95;1.10;;;16.50;93.50;;;;;;5011983;28;38858;-91
2023/08/08 03:18:50;;;;;;;2.65;0.93;;;16.50;95.30;;;;;;5023728;28;37617;-91
2023/08/08 03:21:16;;;;;;;3.15;1.10;;;16.50;97.20;;;;;;5036029;28;39762;-91
2023/08/08 03:23:45;;;;;;;2.72;0.90;;;16.50;96.20;;;;;;5023470;28;37759;-90
2023/08/08 03:26:11;;;;;;;6.07;1.00;;;16.40;99.90;;;;;;5008756;28;39898;-90
2023/08/08 03:28:37;;;;;;;5.03;1.45;;;16.30;99.90;;;;;;5011328;28;38596;-91
2023/08/08 03:31:03;;;;;;;3.97;1.30;;;16.20;99.90;;;;;;5007482;28;39714;-91
2023/08/08 03:33:29;;;;;;;3.60;1.30;;;16.20;93.90;;;;;;5011496;28;39926;-90
2023/08/08 03:35:55;;;;;;;2.78;0.80;;;16.20;99.50;;;;;;5039279;28;38515;-91
2023/08/08 03:38:22;;;;;;;5.00;1.13;;;16.30;93.40;;;;;;5012734;28;38009;-91
2023/08/08 03:40:48;;;;;;;5.43;1.23;;;16.40;94.50;;;;;;5013150;28;39841;-91
2023/08/08 03:43:14;;;;;;;3.60;1.10;;;16.40;95.90;;;;;;5007342;28;39322;-92
2023/08/08 03:45:40;;;;;;;4.03;0.93;;;16.40;96.10;;;;;;5008255;28;38752;-91
2023/08/08 03:48:06;;;;;;;2.20;1.08;;;16.40;94.90;;;;;;5005675;28;37726;-91
2023/08/08 03:50:32;;;;;;;3.10;1.10;;;16.40;97.50;;;;;;5009430;28;39244;-91
2023/08/08 03:52:58;;;;;;;4.43;1.02;;;16.40;96.60;;;;;;5025136;28;38964;-91
2023/08/08 03:55:25;;;;;;;6.38;1.30;;;16.40;94.70;;;;;;5008422;28;36978;-91
2023/08/08 03:57:51;;;;;;;5.05;1.05;;;16.40;99.50;;;;;;5005813;28;37021;-90
2023/08/08 04:00:17;;;;;;;2.95;1.20;;;16.40;95.80;;;;;;5012747;28;37836;-91
2023/08/08 04:02:43;;;;;;;2.95;1.33;;;16.40;95.90;;;;;;5008172;28;37661;-91
2023/08/08 04:05:10;;;;;;;5.03;1.08;;;16.40;99.40;;;;;;5009222;28;38988;-91
2023/08/08 04:07:36;;;;;;;4.53;0.90;;;16.30;94.50;;;;;;5023265;28;38204;-91
2023/08/08 04:10:03;;;;;;;4.82;1.00;;;16.40;95.60;;;;;;5008876;28;20057;-92
2023/08/08 04:12:32;;;;;;;3.38;0.90;;;16.40;99.10;;;;;;5029063;28;47552;-91
2023/08/08 04:14:58;;;;;;;3.25;0.98;;;16.30;98.60;;;;;;5036760;28;38042;-91
2023/08/08 04:17:25;;;;;;;3.55;0.88;;;16.30;99.90;;;;;;5027380;28;37345;-91
2023/08/08 04:19:51;;;;;;;3.80;1.02;;;16.30;98.60;;;;;;5009356;28;40598;-91
2023/08/08 04:22:17;;;;;;;5.45;1.10;;;16.30;99.90;;;;;;5017169;28;38834;-92
2023/08/08 04:24:43;;;;;;;4.28;1.02;;;16.30;99.90;;;;;;5035279;28;38174;-91
2023/08/08 04:27:10;;;;;;;4.47;1.00;;;16.20;98.00;;;;;;5033765;28;37345;-90
2023/08/08 04:29:36;;;;;;;4.68;1.33;;;16.20;99.90;;;;;;5033295;28;38940;-91
2023/08/08 04:32:02;;;;;;;4.97;0.98;;;16.30;99.90;;;;;;5026699;28;38560;-91
2023/08/08 04:34:29;;;;;;;2.63;1.25;;;16.30;99.90;;;;;;5028005;28;37043;-91
2023/08/08 04:36:55;;;;;;;3.63;1.00;;;16.20;99.90;;;;;;5034270;28;37607;-92
2023/08/08 04:39:21;;;;;;;2.85;0.95;;;16.20;97.90;;;;;;5026316;28;38603;-90
2023/08/08 04:41:47;;;;;;;3.65;0.95;;;16.20;99.90;;;;;;5046330;28;39034;-91
2023/08/08 04:44:13;;;;;;;2.47;0.80;;;16.20;99.90;;;;;;5032412;28;38123;-92
2023/08/08 04:46:39;;;;;;;4.25;1.20;;;16.20;99.90;;;;;;5033868;28;37211;-92
2023/08/08 04:49:06;;;;;;;5.97;1.10;;;16.10;99.90;;;;;;5032076;28;38665;-89
2023/08/08 04:51:32;;;;;;;3.28;0.77;;;16.20;99.90;;;;;;5032216;28;38343;-93
2023/08/08 04:53:58;;;;;;;1.58;0.80;;;16.10;99.90;;;;;;5048515;28;38886;-92
2023/08/08 04:56:24;;;;;;;3.83;1.10;;;16.10;99.90;;;;;;5032097;28;37311;-91
2023/08/08 04:59:05;;;;;;;2.65;0.90;;;16.00;99.90;;;;;;5038194;28;39986;-92
2023/08/08 05:01:31;;;;;;;2.28;0.90;;;16.00;99.90;;;;;;5006639;28;47263;-92
2023/08/08 05:03:57;;;;;;;3.80;1.00;;;15.90;99.90;;;;;;5013655;28;37268;-91
2023/08/08 05:06:23;;;;;;;5.28;0.90;;;15.90;99.90;;;;;;5003849;28;36046;-91
2023/08/08 05:08:52;;;;;;;8.32;1.02;;;15.90;99.90;;;;;;5012463;28;37733;-90
2023/08/08 05:11:19;;;;;;;4.40;0.95;;;15.90;99.90;;;;;;5025518;28;37979;-91
2023/08/08 05:13:45;;;;;;;3.45;0.93;;;15.80;99.90;;;;;;5026028;28;38429;-92
2023/08/08 05:16:11;;;;;;;4.38;0.85;;;15.80;99.90;;;;;;5029737;28;37079;-91
2023/08/08 05:18:37;;;;;;;2.35;0.93;;;15.80;99.90;;;;;;5008935;28;37068;-91
2023/08/08 05:21:03;;;;;;;4.45;1.38;;;15.90;99.90;;;;;;5010403;28;39310;-91
2023/08/08 05:23:29;;;;;;;2.30;0.90;;;15.90;99.90;;;;;;5008675;28;38627;-91
2023/08/08 05:25:56;;;;;;;3.40;0.77;;;16.00;99.90;;;;;;5015495;28;37302;-92
2023/08/08 05:28:22;;;;;;;5.07;1.13;;;16.00;99.90;;;;;;5020429;28;40823;-91
2023/08/08 05:30:48;;;;;;;1.85;0.90;;;16.00;99.90;;;;;;5018965;28;38862;-93
2023/08/08 05:33:14;;;;;;;3.33;1.30;;;16.00;99.90;;;;;;5027119;28;37959;-92
2023/08/08 05:35:41;;;;;;;4.97;1.10;;;16.00;99.90;;;;;;5008336;28;37925;-91
2023/08/08 05:38:07;;;;;;;2.45;1.10;;;16.00;99.90;;;;;;5011604;28;39488;-92
2023/08/08 05:40:37;;;;;;;1.70;0.70;;;16.00;99.90;;;;;;5004121;28;41645;-90
2023/08/08 05:43:04;;;;;;;2.67;0.90;;;16.00;99.90;;;;;;5014642;28;37038;-92
2023/08/08 05:45:30;;;;;;;3.85;0.82;;;16.10;99.90;;;;;;5013697;28;38328;-92
2023/08/08 05:47:56;;;;;;;4.43;0.80;;;16.20;99.90;;;;;;5008352;28;37812;-92
2023/08/08 05:50:22;;;;;;;3.65;0.82;;;16.20;99.90;;;;;;5014085;28;39092;-90
2023/08/08 05:52:48;;;;;;;2.10;1.00;;;16.20;99.90;;;;;;5020115;28;38854;-91
2023/08/08 05:55:14;;;;;;;1.88;0.80;;;16.20;99.90;;;;;;5006934;28;37848;-91
2023/08/08 05:57:41;;;;;;;3.97;0.70;;;16.20;99.90;;;;;;5012438;28;39624;-91
2023/08/08 06:00:10;;;;;;;5.65;1.05;;;16.30;99.90;;;;;;5030581;28;39857;-91
2023/08/08 06:02:38;;;;;;;4.93;1.10;;;16.30;99.90;;;;;;5032497;28;38773;-91
2023/08/08 06:05:05;;;;;;;2.22;0.70;;;16.40;99.90;;;;;;5009074;28;38316;-89
2023/08/08 06:07:31;;;;;;;3.53;0.80;;;16.40;99.90;;;;;;5032792;28;39611;-90
2023/08/08 06:09:57;;;;;;;2.20;0.60;;;16.40;99.90;;;;;;5026215;28;38190;-90
2023/08/08 06:12:23;;;;;;;3.38;0.82;;;16.40;99.90;;;;;;5011918;28;38408;-90
2023/08/08 06:14:49;;;;;;;3.67;0.80;;;16.50;98.90;;;;;;5027092;28;37782;-90
2023/08/08 06:17:15;;;;;;;3.92;0.50;;;16.60;98.30;;;;;;5015850;28;40373;-90
2023/08/08 06:19:41;;;;;;;4.10;0.80;;;16.80;94.50;;;;;;5019515;28;39779;-90
2023/08/08 06:22:07;;;;;;;2.75;0.57;;;16.90;90.40;;;;;;5027004;28;38192;-90
2023/08/08 06:24:33;;;;;;;1.92;0.60;;;16.90;90.50;;;;;;5027405;28;37318;-89
2023/08/08 06:27:00;;;;;;;3.47;0.60;;;16.90;93.40;;;;;;5001594;28;39251;-90
2023/08/08 06:29:27;;;;;;;3.67;0.80;;;16.90;82.80;;;;;;5007739;28;37965;-91
2023/08/08 06:31:55;;;;;;;5.68;0.70;;;16.90;87.30;;;;;;5007548;28;37623;-90
2023/08/08 06:34:21;;;;;;;2.38;0.55;;;16.90;90.00;;;;;;5013352;28;36492;-91
2023/08/08 06:36:47;;;;;;;2.42;0.70;;;16.90;91.40;;;;;;5011962;28;39328;-89
2023/08/08 06:39:13;;;;;;;3.28;1.17;;;17.00;94.80;;;;;;5022448;28;37588;-91
2023/08/08 06:41:39;;;;;;;0.73;0.40;;;17.00;91.50;;;;;;5008730;28;38806;-88
2023/08/08 06:44:07;;;;;;;0.68;0.50;;;17.10;86.10;;;;;;5006942;28;37769;-92
2023/08/08 06:46:33;;;;;;;3.67;0.60;;;17.30;87.20;;;;;;5007900;28;39688;-92
2023/08/08 06:49:01;;;;;;;1.95;0.65;;;17.30;85.40;;;;;;5003088;28;38916;-90
2023/08/08 06:51:27;;;;;;;2.85;0.65;;;17.30;91.90;;;;;;5004296;28;46695;-91
2023/08/08 06:53:53;;;;;;;3.80;1.00;;;17.40;76.50;;;;;;5005691;28;35774;-90
2023/08/08 06:56:19;;;;;;;3.05;0.73;;;17.50;79.30;;;;;;5006867;28;39668;-91
2023/08/08 06:58:45;;;;;;;4.18;0.77;;;17.60;81.70;;;;;;5022375;28;36750;-91
2023/08/08 07:01:13;;;;;;;2.22;0.50;;;17.50;72.40;;;;;;5031819;28;38297;-89
2023/08/08 07:03:40;;;;;;;4.47;0.70;;;17.50;76.80;;;;;;5021685;28;38465;-92
2023/08/08 07:06:06;;;;;;;3.05;1.10;;;17.60;65.20;;;;;;5011045;28;37934;-91
2023/08/08 07:08:32;;;;;;;2.40;0.75;;;17.50;59.80;;;;;;5024341;28;38609;-91
2023/08/08 07:10:58;;;;;;;1.85;0.70;;;17.50;74.10;;;;;;5018693;28;38344;-91
2023/08/08 07:13:24;;;;;;;1.95;0.75;;;17.70;83.20;;;;;;5018964;28;38393;-90
2023/08/08 07:15:51;;;;;;;3.88;0.70;;;18.00;78.80;;;;;;5006616;28;39058;-88
2023/08/08 07:18:17;;;;;;;1.35;0.45;;;18.40;78.40;;;;;;5022321;28;38697;-91
2023/08/08 07:20:43;;;;;;;1.13;0.60;;;18.50;73.30;;;;;;5020673;28;37975;-90
2023/08/08 07:23:09;;;;;;;1.40;0.60;;;18.40;57.70;;;;;;5005681;28;36391;-90
2023/08/08 07:25:35;;;;;;;1.92;0.60;;;18.10;59.00;;;;;;5005234;28;37901;-92
2023/08/08 07:28:02;;;;;;;3.72;0.70;;;17.90;60.30;;;;;;5021924;28;38382;-89
2023/08/08 07:30:28;;;;;;;1.95;0.70;;;17.90;73.50;;;;;;5007770;28;37114;-91
2023/08/08 07:32:54;;;;;;;2.85;0.80;;;17.80;76.60;;;;;;5007988;28;37941;-89
2023/08/08 07:35:20;;;;;;;1.55;0.50;;;17.90;69.90;;;;;;5028065;28;38893;-92
2023/08/08 07:37:47;;;;;;;1.67;0.57;;;18.00;77.30;;;;;;5018047;28;38831;-92
2023/08/08 07:40:15;;;;;;;2.85;0.70;;;18.10;72.40;;;;;;5008531;28;38451;-92
2023/08/08 07:42:41;;;;;;;2.60;0.70;;;18.30;95.90;;;;;;5010770;28;36137;-91
2023/08/08 07:45:07;;;;;;;0.80;0.40;;;18.50;82.60;;;;;;5011838;28;37517;-92
2023/08/08 07:47:33;;;;;;;1.48;0.68;;;18.60;59.40;;;;;;5005624;28;39072;-90
2023/08/08 07:50:00;;;;;;;2.55;0.60;;;18.50;50.80;;;;;;5005448;28;36609;-92
2023/08/08 07:52:26;;;;;;;2.15;0.63;;;18.40;53.10;;;;;;5009879;28;37020;-92
2023/08/08 07:54:52;;;;;;;6.32;0.85;;;18.30;72.20;;;;;;5008015;28;39339;-93
2023/08/08 07:57:19;;;;;;;2.53;0.80;;;18.30;54.40;;;;;;5014968;28;39195;-91
2023/08/08 07:59:45;;;;;;;2.78;0.70;;;18.20;64.80;;;;;;5026765;28;38195;-92
2023/08/08 08:02:11;;;;;;;1.50;0.70;;;18.10;63.60;;;;;;5011105;28;37799;-91
2023/08/08 08:04:37;;;;;;;4.80;1.60;;;18.00;75.20;;;;;;5025594;28;36835;-92
2023/08/08 08:07:03;;;;;;;2.08;0.65;;;18.20;61.70;;;;;;5006409;28;38912;-91
2023/08/08 08:09:31;;;;;;;1.48;0.63;;;18.50;74.30;;;;;;5023606;28;38153;-92
2023/08/08 08:11:57;;;;;;;3.22;0.70;;;18.90;64.20;;;;;;5025960;28;37706;-92
2023/08/08 08:14:24;;;;;;;7.60;0.98;;;19.00;55.60;;;;;;5025786;28;39643;-92
2023/08/08 08:16:51;;;;;;;4.70;0.85;;;18.80;39.20;;;;;;5024535;28;37931;-92
2023/08/08 08:19:17;;;;;;;3.88;1.05;;;18.80;38.70;;;;;;5007073;28;38354;-92
2023/08/08 08:21:43;;;;;;;4.15;0.60;;;19.00;44.10;;;;;;5010684;28;38096;-92
2023/08/08 08:24:09;;;;;;;4.15;0.75;;;19.10;66.50;;;;;;5007529;28;39558;-91
2023/08/08 08:26:35;;;;;;;3.78;0.70;;;19.20;46.20;;;;;;5013919;28;39986;-91
2023/08/08 08:29:01;;;;;;;3.03;0.55;;;19.30;53.20;;;;;;5009279;28;39057;-90
2023/08/08 08:31:28;;;;;;;4.72;0.60;;;19.50;43.70;;;;;;5011743;28;47134;-92
2023/08/08 08:33:55;;;;;;;2.25;0.60;;;19.50;21.10;;;;;;5010097;28;40187;-90
2023/08/08 08:36:21;;;;;;;2.25;0.55;;;19.60;13.00;;;;;;5026469;28;38017;-91
2023/08/08 08:38:47;;;;;;;1.25;0.70;;;19.60;12.50;;;;;;5018452;28;39013;-91
2023/08/08 08:41:19;;;;;;;2.58;0.90;;;19.60;2.00;;;;;;5025896;28;37431;-92
2023/08/08 08:43:48;;;;;;;1.57;0.97;;;19.30;13.80;;;;;;5010839;28;39120;-91
2023/08/08 08:46:20;;;;;;;1.55;0.70;;;19.30;28.20;;;;;;5012732;28;38203;-93
2023/08/08 08:48:47;;;;;;;4.45;0.70;;;19.50;1.00;;;;;;5011537;28;40119;-92
2023/08/08 08:51:15;;;;;;;3.65;0.57;;;19.40;8.50;;;;;;5014463;28;37847;-91
2023/08/08 08:53:43;;;;;;;2.13;0.60;;;19.50;14.80;;;;;;5011692;28;39899;-91
2023/08/08 08:56:09;;;;;;;1.77;0.70;;;19.70;11.70;;;;;;5011529;28;38503;-91
2023/08/08 08:58:35;;;;;;;2.28;0.77;;;19.80;10.20;;;;;;5038601;28;37707;-92
2023/08/08 09:01:02;;;;;;;4.15;0.77;;;20.00;2.00;;;;;;5017378;28;37759;-87
2023/08/08 09:03:28;;;;;;;1.92;0.65;;;20.30;39.80;;;;;;5018212;28;39396;-92
2023/08/08 09:05:54;;;;;;;2.33;0.70;;;20.50;12.90;;;;;;5011904;28;38527;-91
2023/08/08 09:08:20;;;;;;;2.85;0.90;;;20.70;26.20;;;;;;5024762;28;37938;-88
2023/08/08 09:10:47;;;;;;;5.20;0.90;;;20.80;1.00;;;;;;5039541;28;37382;-90
2023/08/08 09:13:13;;;;;;;2.53;0.68;;;20.90;1.00;;;;;;5028565;28;37693;-88
2023/08/08 09:15:39;;;;;;;2.60;0.63;;;21.00;1.00;;;;;;5032594;28;37065;-91
2023/08/08 09:18:07;;;;;;;5.18;0.90;;;20.60;1.00;;;;;;5030341;28;38711;-90
2023/08/08 09:20:33;;;;;;;4.20;0.90;;;20.30;1.00;;;;;;5040476;28;37058;-90
2023/08/08 09:23:00;;;;;;;2.38;0.75;;;20.10;1.00;;;;;;5013904;28;39576;-91
2023/08/08 09:25:27;;;;;;;2.80;0.60;;;19.90;1.00;;;;;;5012748;28;40268;-91
2023/08/08 09:27:53;;;;;;;2.88;0.70;;;20.00;1.00;;;;;;5019780;28;38432;-90
2023/08/08 09:30:20;;;;;;;3.47;0.70;;;20.00;1.00;;;;;;5029254;28;37460;-91
2023/08/08 09:32:46;;;;;;;2.92;1.17;;;20.00;1.00;;;;;;5009944;28;37885;-92
2023/08/08 09:35:13;;;;;;;2.05;0.60;;;20.30;1.00;;;;;;5009187;28;38844;-91
2023/08/08 09:37:39;;;;;;;2.22;0.60;;;20.30;1.00;;;;;;5012755;28;38658;-91
2023/08/08 09:40:07;;;;;;;4.55;0.98;;;20.10;1.00;;;;;;5012898;28;38305;-91
2023/08/08 09:42:34;;;;;;;2.45;0.60;;;20.20;1.00;;;;;;5012478;28;46516;-91
2023/08/08 09:45:01;;;;;;;1.30;0.60;;;20.20;1.00;;;;;;5008659;28;38821;-90
2023/08/08 09:47:30;;;;;;;3.10;0.70;;;20.50;1.00;;;;;;5015201;28;39992;-92
2023/08/08 09:50:06;;;;;;;3.50;0.80;;;20.80;1.00;;;;;;5012155;28;36675;-91
2023/08/08 09:52:38;;;;;;;2.25;0.70;;;20.70;1.00;;;;;;5009632;28;47457;-90
2023/08/08 09:55:05;;;;;;;;;;;20.60;1.00;;;;;;5023367;28;39138;-90
2023/08/08 09:57:32;;;;;;;4.53;0.60;;;20.50;1.00;;;;;;5028896;28;38191;-89
2023/08/08 09:59:58;;;;;;;2.70;0.80;;;20.40;1.00;;;;;;5014630;28;37272;-90
2023/08/08 10:02:25;;;;;;;1.23;0.47;;;20.60;1.00;;;;;;5012344;28;39351;-90
2023/08/08 10:04:52;;;;;;;5.38;0.88;;;20.80;1.00;;;;;;5007924;28;39993;-90
2023/08/08 10:07:18;;;;;;;2.38;0.60;;;20.80;1.00;;;;;;5011419;28;36945;-91
2023/08/08 10:09:44;;;;;;;3.95;0.70;;;20.70;1.00;;;;;;5007010;28;37698;-90
2023/08/08 10:12:12;;;;;;;4.18;0.50;;;20.30;1.00;;;;;;5020230;28;39211;-90
2023/08/08 10:14:42;;;;;;;6.28;1.15;;;20.00;1.00;;;;;;5007947;28;37654;-90
2023/08/08 10:17:12;;;;;;;2.38;0.50;;;19.70;1.00;;;;;;5029349;28;38424;-91
2023/08/08 10:19:39;;;;;;;2.95;0.70;;;19.70;1.00;;;;;;5023248;28;37039;-91
2023/08/08 10:22:05;;;;;;;3.65;0.70;;;19.90;1.00;;;;;;5007730;28;37785;-91
2023/08/08 10:24:35;;;;;;;5.07;0.95;;;20.00;1.00;;;;;;5016633;28;39418;-91
2023/08/08 10:27:04;;;;;;;2.50;0.63;;;19.90;1.00;;;;;;5012174;28;38187;-88
2023/08/08 10:29:32;;;;;;;1.95;0.70;;;19.80;1.00;;;;;;5001265;28;37697;-91
2023/08/08 10:32:07;;;;;;;1.15;0.60;;;19.70;1.00;;;;;;5011495;28;40651;-91
2023/08/08 10:34:42;;;;;;;8.07;1.30;;;19.90;1.00;;;;;;5011290;28;46613;-91
2023/08/08 10:37:17;;;;;;;6.63;1.08;;;20.20;1.00;;;;;;5008283;28;39318;-89
2023/08/08 10:39:54;;;;;;;3.75;0.73;;;20.50;10.60;;;;;;5012559;28;37324;-92
2023/08/08 10:42:23;;;;;;;4.00;1.00;;;20.70;1.00;;;;;;5013479;28;38022;-91
2023/08/08 10:44:57;;;;;;;1.70;0.80;;;21.00;1.00;;;;;;5011821;28;37740;-91
2023/08/08 10:47:34;;;;;;;2.70;0.90;;;20.90;1.00;;;;;;5013151;28;39446;-89
2023/08/08 10:50:04;;;;;;;2.67;0.90;;;20.80;1.00;;;;;;5013752;28;37048;-89
2023/08/08 10:52:31;;;;;;;1.92;0.63;;;21.10;1.00;;;;;;5010611;28;47049;-89
2023/08/08 10:54:58;;;;;;;3.70;1.30;;;21.40;1.00;;;;;;5005601;28;36400;-90
2023/08/08 10:57:27;;;;;;;1.70;0.88;;;21.30;1.00;;;;;;5025825;28;37908;-88
2023/08/08 10:59:54;;;;;;;1.92;0.80;;;21.60;1.00;;;;;;5008493;28;38071;-88
2023/08/08 11:02:21;;;;;;;4.22;0.93;;;21.80;1.00;;;;;;5007017;28;40777;-88
2023/08/08 11:04:49;;;;;;;4.30;0.80;;;21.70;1.00;;;;;;5007636;28;37494;-90
2023/08/08 11:07:16;;;;;;;1.98;0.75;;;21.60;1.00;;;;;;5005333;28;39220;-89
2023/08/08 11:09:43;;;;;;;4.75;0.90;;;21.60;1.00;;;;;;5009656;28;37858;-89
2023/08/08 11:12:15;;;;;;;4.15;1.33;;;21.80;1.00;;;;;;5001434;28;39594;-88
2023/08/08 11:14:43;;;;;;;3.28;0.82;;;21.80;1.00;;;;;;5010916;28;38321;-89
2023/08/08 11:17:11;;;;;;;5.45;0.80;;;22.00;1.00;;;;;;5012500;28;36995;-89
2023/08/08 11:19:41;;;;;;;1.98;0.88;;;21.80;1.00;;;;;;5006704;28;36864;-88
2023/08/08 11:22:11;;;;;;;2.97;0.73;;;21.60;1.00;;;;;;5008014;28;37602;-89
2023/08/08 11:24:37;;;;;;;3.55;0.95;;;22.00;1.00;;;;;;5024033;28;39548;-88
2023/08/08 11:27:04;;;;;;;4.45;0.90;;;22.10;1.00;;;;;;5001250;28;39545;-88
2023/08/08 11:29:31;;;;;;;3.67;1.05;;;21.90;1.00;;;;;;4998964;28;36598;-89
2023/08/08 11:32:01;;;;;;;6.43;1.15;;;21.50;1.00;;;;;;5005335;28;39051;-88
2023/08/08 11:34:31;;;;;;;5.72;1.17;;;21.30;1.00;;;;;;5009045;28;46956;-89
2023/08/08 11:37:00;;;;;;;2.33;0.93;;;21.00;1.00;;;;;;5009494;28;37075;-89
2023/08/08 11:39:27;;;;;;;2.20;0.82;;;20.70;1.00;;;;;;4999608;28;36026;-88
2023/08/08 11:41:54;;;;;;;2.45;0.65;;;20.50;1.00;;;;;;5012730;28;39851;-89
2023/08/08 11:44:20;;;;;;;3.47;0.60;;;20.90;1.00;;;;;;5033323;28;38626;-87
2023/08/08 11:46:47;;;;;;;1.63;0.63;;;21.00;1.00;;;;;;5018591;28;36109;-90
2023/08/08 11:49:15;;;;;;;4.82;1.08;;;21.00;1.00;;;;;;5000118;28;38302;-92
2023/08/08 11:51:44;;;;;;;3.70;0.80;;;20.70;1.00;;;;;;5005980;28;39583;-92
2023/08/08 11:54:10;;;;;;;4.95;0.90;;;20.10;1.00;;;;;;5002905;28;37882;-92
2023/08/08 11:56:37;;;;;;;3.33;0.95;;;19.80;1.00;;;;;;5008285;28;37262;-90
2023/08/08 11:59:04;;;;;;;2.20;0.55;;;20.20;1.00;;;;;;5010296;28;37904;-92
2023/08/08 12:01:32;;;;;;;4.10;0.73;;;20.30;1.00;;;;;;5010158;28;36679;-91
2023/08/08 12:04:05;;;;;;;2.60;1.00;;;20.80;1.00;;;;;;5007180;28;37171;-91
2023/08/08 12:06:31;;;;;;;3.60;0.60;;;20.90;1.00;;;;;;5004441;28;46939;-90
2023/08/08 12:08:57;;;;;;;1.17;0.50;;;20.70;1.00;;;;;;5023953;28;37166;-91
2023/08/08 12:11:24;;;;;;;5.90;0.80;;;20.60;1.00;;;;;;5013179;28;39372;-91
2023/08/08 12:13:50;;;;;;;2.88;0.73;;;20.60;1.00;;;;;;5018090;28;38627;-91
2023/08/08 12:16:16;;;;;;;2.85;0.60;;;20.40;1.00;;;;;;5002471;28;38617;-90
2023/08/08 12:18:43;;;;;;;1.98;0.60;;;20.50;1.00;;;;;;5009304;28;37857;-91
2023/08/08 12:21:09;;;;;;;4.53;0.90;;;21.00;1.00;;;;;;5010851;28;38704;-89
2023/08/08 12:23:36;;;;;;;2.35;0.60;;;21.50;1.00;;;;;;5010854;28;38885;-90
2023/08/08 12:26:08;;;;;;;2.05;0.50;;;21.90;1.00;;;;;;5010168;28;38952;-93
2023/08/08 12:28:34;;;;;;;3.95;0.75;;;21.90;1.00;;;;;;5016532;28;35970;-88
2023/08/08 12:31:01;;;;;;;3.20;0.98;;;21.80;99.90;;;;;;5007048;28;39680;-88
2023/08/08 12:33:27;;;;;;;1.98;0.77;;;22.10;1.00;;;;;;5011671;28;47539;-89
2023/08/08 12:35:53;;;;;;;0.63;0.55;;;22.10;1.00;;;;;;5005874;28;38076;-88
2023/08/08 12:38:19;;;;;;;2.83;0.80;;;22.00;99.90;;;;;;5007311;28;37419;-86
2023/08/08 12:40:46;;;;;;;2.80;0.70;;;22.30;1.00;;;;;;5012793;28;39451;-88
2023/08/08 12:43:13;;;;;;;1.15;0.90;;;22.10;1.00;;;;;;5006213;28;39010;-85
2023/08/08 12:45:40;;;;;;;3.80;0.70;;;22.00;1.00;;;;;;5002441;28;38914;-89
2023/08/08 12:48:06;;;;;;;3.58;0.82;;;22.10;1.00;;;;;;5008267;28;37627;-90
2023/08/08 12:50:32;;;;;;;1.73;0.70;;;22.20;1.00;;;;;;5017059;28;39685;-90
2023/08/08 12:52:59;;;;;;;3.00;0.80;;;22.30;99.90;;;;;;5033442;28;39191;-89
2023/08/08 12:55:25;;;;;;;3.58;0.80;;;22.10;1.00;;;;;;5037653;28;38531;-90
2023/08/08 12:57:51;;;;;;;3.78;1.20;;;22.00;3.80;;;;;;5009518;28;38907;-89
2023/08/08 13:00:17;;;;;;;4.78;2.83;;;22.00;1.00;;;;;;5046470;28;39221;-89
2023/08/08 13:02:43;;;;;;;7.85;1.80;;;21.60;99.90;;;;;;5029338;28;39213;-89
2023/08/08 13:05:10;;;;;;;3.75;1.05;;;21.50;1.00;;;;;;5016019;28;37180;-89